Time;durP1;ratioP1;P1;durP2;ratioP2;P2;SDS_P1;SDS_P2;PMS_P1;PMS_P2;Temp;Humidity;BMP_temperature;BMP_pressure;BME280_temperature;BME280_humidity;BME280_pressure;Samples;Min_cycle;Max_cycle;Signal;HPM_P1;HPM_P2
2021/05/12 00:00:29;;;;;;;3.70;3.40;;;;;;;;;;5006857;28;20190;-65
2021/05/12 00:02:55;;;;;;;4.50;3.20;;;;;;;;;;5001587;28;20221;-63
2021/05/12 00:05:22;;;;;;;4.77;3.57;;;;;;;;;;5008506;28;20272;-63
2021/05/12 00:07:49;;;;;;;3.80;3.50;;;;;;;;;;5005288;28;20217;-64
2021/05/12 00:10:15;;;;;;;3.67;3.37;;;;;;;;;;5005469;28;20248;-63
2021/05/12 00:12:41;;;;;;;3.67;3.30;;;;;;;;;;5008229;28;20204;-64
2021/05/12 00:15:09;;;;;;;3.67;3.43;;;;;;;;;;5004101;28;20207;-65
2021/05/12 00:17:37;;;;;;;3.10;2.90;;;;;;;;;;5007417;28;20732;-64
2021/05/12 00:20:04;;;;;;;3.17;2.90;;;;;;;;;;5004623;28;20262;-64
2021/05/12 00:25:15;;;;;;;3.97;3.67;;;;;;;;;;5005665;28;20271;-66
2021/05/12 00:27:41;;;;;;;4.43;4.03;;;;;;;;;;5001899;28;20213;-65
2021/05/12 00:30:09;;;;;;;4.33;3.93;;;;;;;;;;5010198;28;20205;-64
2021/05/12 00:32:35;;;;;;;4.83;4.00;;;;;;;;;;5006129;28;20231;-64
2021/05/12 00:35:01;;;;;;;3.87;3.63;;;;;;;;;;5004635;28;20193;-64
2021/05/12 00:37:27;;;;;;;3.93;3.70;;;;;;;;;;5004527;28;20189;-64
2021/05/12 00:39:53;;;;;;;3.90;3.70;;;;;;;;;;5004983;28;20187;-64
2021/05/12 00:42:19;;;;;;;3.70;3.47;;;;;;;;;;5008880;28;20244;-64
2021/05/12 00:44:45;;;;;;;3.60;3.30;;;;;;;;;;5000942;28;20183;-64
2021/05/12 00:47:11;;;;;;;3.77;3.40;;;;;;;;;;5006785;28;20654;-64
2021/05/12 00:49:37;;;;;;;4.07;3.67;;;;;;;;;;5007432;28;21493;-64
2021/05/12 00:52:04;;;;;;;4.27;3.90;;;;;;;;;;5003163;28;20209;-64
2021/05/12 00:54:32;;;;;;;3.83;3.53;;;;;;;;;;5005161;28;20196;-64
2021/05/12 00:56:58;;;;;;;4.40;4.00;;;;;;;;;;5008101;28;20677;-64
2021/05/12 00:59:31;;;;;;;4.97;3.73;;;;;;;;;;5000493;28;20606;-64
2021/05/12 01:01:57;;;;;;;4.10;3.73;;;;;;;;;;5003728;28;20297;-64
2021/05/12 01:04:23;;;;;;;4.63;4.23;;;;;;;;;;4997960;28;20218;-64
2021/05/12 01:06:49;;;;;;;3.93;3.53;;;;;;;;;;5003273;28;20268;-64
2021/05/12 01:09:15;;;;;;;4.27;3.63;;;;;;;;;;5007394;28;20642;-64
2021/05/12 01:11:42;;;;;;;4.27;3.87;;;;;;;;;;5000169;28;20223;-64
2021/05/12 01:14:08;;;;;;;3.67;3.37;;;;;;;;;;5002296;28;20212;-64
2021/05/12 01:16:34;;;;;;;4.60;3.10;;;;;;;;;;5007497;28;20189;-65
2021/05/12 01:19:00;;;;;;;3.93;3.60;;;;;;;;;;5000866;28;20193;-64
2021/05/12 01:21:26;;;;;;;3.40;3.20;;;;;;;;;;5038044;28;20296;-64
2021/05/12 01:23:52;;;;;;;3.67;3.20;;;;;;;;;;5007906;28;20212;-63
2021/05/12 01:26:20;;;;;;;3.20;3.00;;;;;;;;;;5000947;28;20221;-64
2021/05/12 01:28:47;;;;;;;3.37;3.07;;;;;;;;;;5006084;28;20208;-65
2021/05/12 01:31:21;;;;;;;3.53;2.90;;;;;;;;;;5002653;28;20611;-64
2021/05/12 01:33:49;;;;;;;3.10;2.90;;;;;;;;;;5002971;28;20534;-66
2021/05/12 01:36:15;;;;;;;2.57;2.43;;;;;;;;;;5005642;28;20185;-64
2021/05/12 01:38:42;;;;;;;2.80;2.60;;;;;;;;;;5006011;28;20195;-66
2021/05/12 01:41:08;;;;;;;2.50;2.30;;;;;;;;;;5005369;28;20201;-64
2021/05/12 01:43:35;;;;;;;5.20;3.30;;;;;;;;;;5008525;28;20192;-63
2021/05/12 01:46:01;;;;;;;3.60;2.33;;;;;;;;;;5001859;28;20189;-64
2021/05/12 01:48:28;;;;;;;2.50;2.30;;;;;;;;;;5009792;28;20719;-64
2021/05/12 01:50:54;;;;;;;3.27;2.40;;;;;;;;;;5006638;28;20217;-64
2021/05/12 01:53:20;;;;;;;2.60;2.40;;;;;;;;;;5005418;28;20211;-64
2021/05/12 01:55:46;;;;;;;2.60;2.40;;;;;;;;;;5003157;28;20566;-65
2021/05/12 01:58:13;;;;;;;2.57;2.37;;;;;;;;;;5004533;28;20219;-66
2021/05/12 02:00:40;;;;;;;3.60;2.57;;;;;;;;;;5007645;28;20219;-65
2021/05/12 02:03:09;;;;;;;2.77;2.40;;;;;;;;;;5003521;28;20216;-63
2021/05/12 02:05:36;;;;;;;4.53;2.30;;;;;;;;;;4998231;28;20736;-65
2021/05/12 02:08:04;;;;;;;2.20;2.00;;;;;;;;;;4999655;28;20215;-65
2021/05/12 02:10:30;;;;;;;2.40;2.30;;;;;;;;;;5003197;28;20189;-64
2021/05/12 02:12:56;;;;;;;3.73;2.00;;;;;;;;;;4998562;28;20247;-65
2021/05/12 02:15:23;;;;;;;2.93;2.23;;;;;;;;;;5008121;28;20201;-63
2021/05/12 02:17:49;;;;;;;5.00;2.90;;;;;;;;;;5000201;28;20192;-63
2021/05/12 02:20:17;;;;;;;3.10;2.53;;;;;;;;;;5002349;28;20192;-63
2021/05/12 02:22:43;;;;;;;3.67;2.30;;;;;;;;;;4998397;28;20212;-63
2021/05/12 02:25:09;;;;;;;3.00;2.40;;;;;;;;;;5003909;28;20661;-64
2021/05/12 02:27:37;;;;;;;2.50;2.30;;;;;;;;;;5000559;28;20240;-64
2021/05/12 02:30:07;;;;;;;2.80;2.43;;;;;;;;;;5006034;28;20212;-64
2021/05/12 02:32:33;;;;;;;3.50;2.70;;;;;;;;;;5010550;28;20213;-65
2021/05/12 02:34:59;;;;;;;2.47;2.27;;;;;;;;;;5002881;28;20185;-64
2021/05/12 02:37:26;;;;;;;4.00;2.40;;;;;;;;;;5002532;28;20261;-63
2021/05/12 02:39:53;;;;;;;3.37;2.70;;;;;;;;;;5007673;28;20275;-65
2021/05/12 02:42:19;;;;;;;3.00;2.60;;;;;;;;;;5008603;28;20208;-62
2021/05/12 02:44:45;;;;;;;3.83;2.30;;;;;;;;;;5003596;28;20189;-65
2021/05/12 02:47:11;;;;;;;3.57;2.70;;;;;;;;;;5005065;28;20569;-65
2021/05/12 02:49:39;;;;;;;5.30;2.50;;;;;;;;;;5005146;28;20213;-65
2021/05/12 02:52:05;;;;;;;3.57;2.77;;;;;;;;;;5002666;28;20806;-64
2021/05/12 02:54:31;;;;;;;3.23;2.93;;;;;;;;;;5003331;28;20657;-64
2021/05/12 02:56:57;;;;;;;3.70;3.00;;;;;;;;;;5000161;28;20256;-65
2021/05/12 02:59:23;;;;;;;3.93;3.07;;;;;;;;;;5000961;28;20193;-65
2021/05/12 03:01:49;;;;;;;5.77;3.63;;;;;;;;;;5010285;28;20244;-64
2021/05/12 03:04:15;;;;;;;5.33;3.57;;;;;;;;;;4998550;28;20185;-65
2021/05/12 03:06:41;;;;;;;7.03;3.73;;;;;;;;;;4999463;28;20383;-63
2021/05/12 03:09:08;;;;;;;7.83;4.73;;;;;;;;;;4995399;28;20562;-63
2021/05/12 03:11:34;;;;;;;6.03;4.33;;;;;;;;;;5003448;28;20703;-64
2021/05/12 03:14:01;;;;;;;6.93;4.30;;;;;;;;;;5013371;28;20185;-63
2021/05/12 03:16:29;;;;;;;4.60;3.93;;;;;;;;;;4998704;28;20189;-65
2021/05/12 03:18:55;;;;;;;7.53;4.00;;;;;;;;;;4999743;28;20194;-62
2021/05/12 03:21:21;;;;;;;4.90;4.40;;;;;;;;;;4999652;28;20223;-65
2021/05/12 03:23:49;;;;;;;7.70;4.30;;;;;;;;;;4999811;28;20201;-65
2021/05/12 03:26:15;;;;;;;5.93;4.80;;;;;;;;;;5001560;28;20208;-65
2021/05/12 03:28:41;;;;;;;6.67;4.87;;;;;;;;;;5005055;28;20208;-65
2021/05/12 03:31:07;;;;;;;6.73;5.00;;;;;;;;;;4999238;28;20599;-64
2021/05/12 03:33:33;;;;;;;8.60;5.43;;;;;;;;;;5003824;28;20185;-65
2021/05/12 03:35:59;;;;;;;6.90;5.20;;;;;;;;;;5004639;28;20186;-65
2021/05/12 03:38:25;;;;;;;5.77;4.93;;;;;;;;;;5001580;28;20220;-65
2021/05/12 03:40:51;;;;;;;7.50;5.30;;;;;;;;;;4999760;28;20244;-65
2021/05/12 03:43:17;;;;;;;6.17;5.57;;;;;;;;;;5002621;28;20211;-63
2021/05/12 03:45:43;;;;;;;8.23;5.80;;;;;;;;;;5003973;28;20569;-65
2021/05/12 03:48:09;;;;;;;8.70;6.00;;;;;;;;;;5000685;28;20209;-63
2021/05/12 03:50:36;;;;;;;7.93;6.17;;;;;;;;;;4995403;28;20676;-63
2021/05/12 03:53:02;;;;;;;10.30;6.50;;;;;;;;;;5002287;28;20201;-65
2021/05/12 03:55:28;;;;;;;8.30;6.23;;;;;;;;;;5006649;28;21180;-63
2021/05/12 03:57:54;;;;;;;10.23;6.70;;;;;;;;;;4998777;28;20181;-65
2021/05/12 04:00:20;;;;;;;8.40;6.63;;;;;;;;;;5015356;28;20189;-65
2021/05/12 04:02:46;;;;;;;6.83;6.03;;;;;;;;;;5007054;28;20717;-64
2021/05/12 04:05:13;;;;;;;8.83;5.83;;;;;;;;;;5010380;28;20770;-65
2021/05/12 04:07:40;;;;;;;7.50;6.60;;;;;;;;;;4996545;28;20196;-64
2021/05/12 04:10:06;;;;;;;8.67;6.70;;;;;;;;;;4999692;28;20656;-65
2021/05/12 04:12:32;;;;;;;7.57;6.53;;;;;;;;;;5002666;28;20318;-65
2021/05/12 04:14:58;;;;;;;9.30;7.33;;;;;;;;;;5001802;28;20193;-64
2021/05/12 04:17:26;;;;;;;10.17;6.83;;;;;;;;;;4999429;28;20193;-65
2021/05/12 04:19:52;;;;;;;7.40;6.70;;;;;;;;;;5004109;28;20228;-64
2021/05/12 04:22:18;;;;;;;9.33;7.40;;;;;;;;;;4996666;28;20216;-64
2021/05/12 04:24:44;;;;;;;9.13;8.03;;;;;;;;;;5003638;28;20562;-65
2021/05/12 04:27:11;;;;;;;8.67;7.70;;;;;;;;;;4997024;28;20270;-66
2021/05/12 04:29:37;;;;;;;8.73;7.27;;;;;;;;;;5006355;28;20581;-65
2021/05/12 04:32:04;;;;;;;12.50;6.87;;;;;;;;;;4996900;28;20240;-65
2021/05/12 04:34:30;;;;;;;11.13;7.03;;;;;;;;;;5001877;28;20189;-65
2021/05/12 04:36:56;;;;;;;7.80;7.07;;;;;;;;;;5007707;28;20618;-65
2021/05/12 04:39:22;;;;;;;8.53;7.63;;;;;;;;;;4999942;28;20197;-67
2021/05/12 04:41:48;;;;;;;7.90;7.10;;;;;;;;;;4999306;28;20310;-68
2021/05/12 04:44:14;;;;;;;8.63;7.57;;;;;;;;;;4997918;28;20198;-66
2021/05/12 04:46:43;;;;;;;8.17;7.17;;;;;;;;;;5001694;28;20447;-67
2021/05/12 04:49:09;;;;;;;10.20;7.97;;;;;;;;;;5002113;28;20221;-66
2021/05/12 04:51:35;;;;;;;7.67;6.90;;;;;;;;;;5005945;28;20226;-68
2021/05/12 04:54:05;;;;;;;10.90;7.43;;;;;;;;;;5001644;28;20330;-67
2021/05/12 04:56:31;;;;;;;12.00;7.03;;;;;;;;;;5003961;28;20181;-68
2021/05/12 04:58:57;;;;;;;10.33;7.20;;;;;;;;;;5003142;28;20200;-67
2021/05/12 05:01:24;;;;;;;11.33;6.80;;;;;;;;;;4997085;28;20217;-67
2021/05/12 05:03:50;;;;;;;12.23;7.40;;;;;;;;;;4999826;28;20192;-66
2021/05/12 05:06:16;;;;;;;10.17;7.77;;;;;;;;;;4995011;28;20917;-65
2021/05/12 05:08:43;;;;;;;12.23;7.43;;;;;;;;;;5013874;28;20208;-63
2021/05/12 05:11:09;;;;;;;8.73;7.80;;;;;;;;;;5005961;28;20262;-63
2021/05/12 05:13:36;;;;;;;12.10;8.23;;;;;;;;;;5004577;28;20185;-64
2021/05/12 05:16:02;;;;;;;11.13;8.43;;;;;;;;;;5006088;28;20185;-65
2021/05/12 05:18:28;;;;;;;10.53;8.60;;;;;;;;;;5006116;28;20216;-65
2021/05/12 05:20:55;;;;;;;12.03;8.33;;;;;;;;;;5000116;28;20835;-65
2021/05/12 05:23:21;;;;;;;12.30;8.43;;;;;;;;;;4996873;28;20268;-64
2021/05/12 05:25:47;;;;;;;8.60;7.70;;;;;;;;;;4998319;28;21069;-64
2021/05/12 05:28:13;;;;;;;8.07;7.03;;;;;;;;;;4999016;28;20707;-66
2021/05/12 05:30:39;;;;;;;10.23;7.60;;;;;;;;;;5000924;28;20189;-65
2021/05/12 05:33:05;;;;;;;14.53;7.67;;;;;;;;;;5004645;28;20215;-64
2021/05/12 05:35:31;;;;;;;7.23;6.50;;;;;;;;;;5000233;28;20557;-62
2021/05/12 05:37:57;;;;;;;7.60;6.80;;;;;;;;;;4999753;28;20196;-66
2021/05/12 05:40:23;;;;;;;7.63;6.57;;;;;;;;;;5000262;28;20201;-65
2021/05/12 05:43:01;;;;;;;9.70;6.97;;;;;;;;;;5002213;28;20217;-65
2021/05/12 05:45:27;;;;;;;9.20;6.30;;;;;;;;;;5007440;28;20292;-65
2021/05/12 05:47:53;;;;;;;7.97;5.43;;;;;;;;;;5013420;28;20215;-63
2021/05/12 05:50:21;;;;;;;6.77;5.07;;;;;;;;;;5022071;28;20244;-64
2021/05/12 05:52:47;;;;;;;9.83;5.27;;;;;;;;;;5006351;28;20208;-63
2021/05/12 05:55:14;;;;;;;7.93;5.80;;;;;;;;;;4998684;28;20238;-63
2021/05/12 05:57:40;;;;;;;6.90;5.30;;;;;;;;;;5009247;28;20180;-64
2021/05/12 06:00:06;;;;;;;8.40;5.23;;;;;;;;;;5007505;28;20663;-65
2021/05/12 06:02:34;;;;;;;5.23;4.70;;;;;;;;;;5004665;28;20204;-66
2021/05/12 06:05:02;;;;;;;8.57;5.10;;;;;;;;;;4998478;28;20518;-65
2021/05/12 06:07:28;;;;;;;6.30;4.77;;;;;;;;;;4997095;28;20577;-64
2021/05/12 06:09:54;;;;;;;6.53;5.40;;;;;;;;;;5014730;28;20187;-63
2021/05/12 06:12:20;;;;;;;5.83;4.93;;;;;;;;;;5001873;28;20571;-63
2021/05/12 06:14:46;;;;;;;7.27;5.37;;;;;;;;;;5007658;28;20264;-63
2021/05/12 06:17:12;;;;;;;8.40;6.00;;;;;;;;;;5001270;28;20200;-63
2021/05/12 06:19:38;;;;;;;9.03;5.40;;;;;;;;;;5011464;28;20197;-64
2021/05/12 06:22:04;;;;;;;6.80;5.33;;;;;;;;;;5007724;28;20500;-63
2021/05/12 06:24:30;;;;;;;8.63;5.40;;;;;;;;;;5014770;28;20728;-64
2021/05/12 06:26:57;;;;;;;6.10;4.77;;;;;;;;;;5006310;28;20296;-65
2021/05/12 06:29:23;;;;;;;5.73;4.70;;;;;;;;;;5004689;28;20684;-64
2021/05/12 06:31:49;;;;;;;7.87;4.90;;;;;;;;;;4999637;28;20264;-62
2021/05/12 06:34:15;;;;;;;6.80;4.30;;;;;;;;;;5001942;28;20217;-63
2021/05/12 06:36:41;;;;;;;5.00;3.93;;;;;;;;;;5002225;28;20195;-62
2021/05/12 06:39:07;;;;;;;4.97;4.43;;;;;;;;;;5010125;28;20608;-61
2021/05/12 06:41:34;;;;;;;4.90;4.37;;;;;;;;;;5008438;28;20216;-63
2021/05/12 06:44:00;;;;;;;6.17;4.80;;;;;;;;;;5005500;28;20188;-64
2021/05/12 06:46:26;;;;;;;8.27;5.20;;;;;;;;;;5003888;28;20185;-62
2021/05/12 06:48:52;;;;;;;4.90;4.43;;;;;;;;;;4999783;28;20307;-63
2021/05/12 06:51:21;;;;;;;5.57;4.83;;;;;;;;;;4996282;28;20630;-65
2021/05/12 06:53:47;;;;;;;6.40;4.27;;;;;;;;;;5003376;28;20700;-61
2021/05/12 06:56:13;;;;;;;5.67;4.37;;;;;;;;;;5017406;28;20209;-63
2021/05/12 06:58:42;;;;;;;6.57;4.10;;;;;;;;;;4999568;28;20249;-63
2021/05/12 07:01:09;;;;;;;9.27;4.57;;;;;;;;;;5005553;28;20393;-62
2021/05/12 07:03:35;;;;;;;5.93;4.43;;;;;;;;;;5012889;28;20201;-62
2021/05/12 07:06:02;;;;;;;4.80;3.70;;;;;;;;;;5003523;28;20565;-62
2021/05/12 07:08:28;;;;;;;6.27;4.10;;;;;;;;;;5001376;28;20280;-62
2021/05/12 07:10:54;;;;;;;5.10;4.23;;;;;;;;;;4998402;28;20189;-63
2021/05/12 07:13:20;;;;;;;5.27;4.50;;;;;;;;;;4999733;28;20600;-61
2021/05/12 07:15:46;;;;;;;4.60;4.03;;;;;;;;;;5003845;28;20199;-62
2021/05/12 07:18:12;;;;;;;6.60;4.50;;;;;;;;;;4996478;28;20193;-63
2021/05/12 07:20:38;;;;;;;5.93;4.30;;;;;;;;;;5000627;28;20220;-66
2021/05/12 07:23:05;;;;;;;4.67;4.17;;;;;;;;;;5005549;28;20710;-63
2021/05/12 07:25:31;;;;;;;8.23;4.00;;;;;;;;;;5001356;28;20197;-63
2021/05/12 07:27:57;;;;;;;6.53;4.20;;;;;;;;;;5003828;28;20212;-63
2021/05/12 07:30:24;;;;;;;5.63;3.93;;;;;;;;;;5000253;28;20193;-66
2021/05/12 07:32:50;;;;;;;4.90;3.93;;;;;;;;;;4992782;28;20201;-65
2021/05/12 07:35:17;;;;;;;6.63;3.80;;;;;;;;;;5000775;28;20617;-65
2021/05/12 07:37:43;;;;;;;3.90;3.60;;;;;;;;;;5004688;28;20190;-65
2021/05/12 07:40:09;;;;;;;5.23;3.90;;;;;;;;;;4999567;28;20199;-63
2021/05/12 07:42:38;;;;;;;5.73;3.83;;;;;;;;;;5000167;28;20212;-64
2021/05/12 07:45:04;;;;;;;6.70;4.30;;;;;;;;;;4996941;28;20181;-66
2021/05/12 07:47:30;;;;;;;5.17;4.00;;;;;;;;;;4998566;28;20181;-64
2021/05/12 07:49:56;;;;;;;9.17;4.40;;;;;;;;;;5001469;28;20656;-65
2021/05/12 07:52:22;;;;;;;4.00;3.60;;;;;;;;;;5004144;28;20208;-65
2021/05/12 07:54:48;;;;;;;8.00;4.40;;;;;;;;;;4998589;28;20220;-65
2021/05/12 07:57:15;;;;;;;6.43;4.40;;;;;;;;;;4999125;28;20177;-65
2021/05/12 07:59:42;;;;;;;7.27;4.37;;;;;;;;;;4998270;28;20278;-66
2021/05/12 08:02:08;;;;;;;5.50;4.57;;;;;;;;;;5015616;28;20259;-64
2021/05/12 08:04:35;;;;;;;5.30;4.57;;;;;;;;;;5002195;28;20236;-64
2021/05/12 08:07:01;;;;;;;5.00;4.23;;;;;;;;;;5016638;28;20200;-64
2021/05/12 08:09:27;;;;;;;5.47;3.77;;;;;;;;;;5000999;28;20213;-64
2021/05/12 08:11:54;;;;;;;4.50;3.83;;;;;;;;;;4996028;28;20724;-67
2021/05/12 08:14:20;;;;;;;5.23;4.73;;;;;;;;;;4995224;28;20185;-63
2021/05/12 08:16:46;;;;;;;4.60;4.20;;;;;;;;;;4992327;28;20211;-64
2021/05/12 08:19:13;;;;;;;5.43;4.60;;;;;;;;;;5002274;28;20211;-64
2021/05/12 08:21:39;;;;;;;4.80;4.35;;;;;;;;;;5006415;28;20257;-62
2021/05/12 08:24:05;;;;;;;6.90;6.20;;;;;;;;;;5006050;28;20282;-63
2021/05/12 08:26:31;;;;;;;7.23;6.50;;;;;;;;;;5003891;28;20630;-64
2021/05/12 08:29:01;;;;;;;9.30;5.20;;;;;;;;;;5002037;28;20232;-63
2021/05/12 08:31:29;;;;;;;5.87;4.47;;;;;;;;;;5006083;28;20206;-64
2021/05/12 08:33:55;;;;;;;5.47;4.30;;;;;;;;;;5004936;28;20280;-63
2021/05/12 08:36:21;;;;;;;6.17;4.47;;;;;;;;;;5003291;28;20288;-65
2021/05/12 08:38:47;;;;;;;8.27;4.75;;;;;;;;;;5004168;28;20562;-63
2021/05/12 08:41:17;;;;;;;7.10;4.57;;;;;;;;;;4999613;28;20185;-66
2021/05/12 08:43:43;;;;;;;8.23;4.00;;;;;;;;;;4998744;28;20267;-65
2021/05/12 08:46:09;;;;;;;5.25;4.10;;;;;;;;;;5003654;28;20220;-64
2021/05/12 08:48:39;;;;;;;8.07;7.30;;;;;;;;;;5013827;28;20209;-64
2021/05/12 08:51:09;;;;;;;5.75;4.35;;;;;;;;;;5007680;28;20189;-63
2021/05/12 08:53:35;;;;;;;4.88;4.13;;;;;;;;;;5005490;28;20535;-65
2021/05/12 08:56:02;;;;;;;5.65;3.67;;;;;;;;;;5000099;28;20185;-66
2021/05/12 08:58:28;;;;;;;5.10;3.92;;;;;;;;;;5006093;28;20213;-63
2021/05/12 09:00:55;;;;;;;5.45;4.88;;;;;;;;;;4995503;28;20197;-64
2021/05/12 09:03:21;;;;;;;8.40;4.03;;;;;;;;;;5000982;28;20633;-65
2021/05/12 09:05:48;;;;;;;6.75;3.50;;;;;;;;;;5008706;28;20572;-66
2021/05/12 09:08:15;;;;;;;3.63;3.33;;;;;;;;;;5007667;28;20216;-65
2021/05/12 09:10:42;;;;;;;7.93;3.80;;;;;;;;;;5000151;28;20192;-63
2021/05/12 09:13:08;;;;;;;5.22;3.45;;;;;;;;;;5000281;28;20212;-65
2021/05/12 09:15:34;;;;;;;12.07;4.38;;;;;;;;;;5013082;28;20185;-65
2021/05/12 09:18:04;;;;;;;5.55;3.67;;;;;;;;;;5000384;28;20619;-65
2021/05/12 09:20:37;;;;;;;9.88;4.97;;;;;;;;;;5001310;28;20189;-64
2021/05/12 09:23:13;;;;;;;4.72;4.10;;;;;;;;;;4996397;28;20292;-62
2021/05/12 09:25:40;;;;;;;5.50;4.43;;;;;;;;;;5001098;28;20236;-63
2021/05/12 09:28:16;;;;;;;7.95;4.10;;;;;;;;;;5004724;28;20766;-64
2021/05/12 09:30:43;;;;;;;3.50;3.20;;;;;;;;;;5003949;28;20259;-63
2021/05/12 09:33:10;;;;;;;6.32;3.67;;;;;;;;;;5013987;28;20939;-65
2021/05/12 09:35:43;;;;;;;3.40;3.10;;;;;;;;;;5007269;28;20267;-65
2021/05/12 09:38:17;;;;;;;4.10;2.85;;;;;;;;;;5008023;28;20197;-65
2021/05/12 09:40:43;;;;;;;3.53;2.87;;;;;;;;;;5002775;28;20189;-65
2021/05/12 09:43:11;;;;;;;5.13;2.80;;;;;;;;;;5006648;28;20285;-64
2021/05/12 09:45:38;;;;;;;3.58;3.20;;;;;;;;;;5014944;28;20565;-63
2021/05/12 09:48:04;;;;;;;5.70;3.35;;;;;;;;;;5012233;28;20209;-62
2021/05/12 09:50:32;;;;;;;3.67;2.92;;;;;;;;;;5014676;28;20204;-63
2021/05/12 09:52:59;;;;;;;4.55;2.65;;;;;;;;;;5007192;28;20202;-63
2021/05/12 09:55:41;;;;;;;8.98;3.55;;;;;;;;;;4999752;28;20274;-65
2021/05/12 09:58:08;;;;;;;3.10;2.80;;;;;;;;;;4999334;28;20532;-64
2021/05/12 10:00:35;;;;;;;6.15;3.15;;;;;;;;;;5005094;28;20189;-62
2021/05/12 10:03:04;;;;;;;6.93;2.80;;;;;;;;;;4997441;28;20216;-65
2021/05/12 10:05:48;;;;;;;4.13;3.45;;;;;;;;;;5004533;28;20633;-64
2021/05/12 10:08:20;;;;;;;5.70;3.30;;;;;;;;;;5005654;28;20219;-64
2021/05/12 10:10:46;;;;;;;4.43;2.85;;;;;;;;;;5000696;28;20185;-65
2021/05/12 10:13:12;;;;;;;5.50;3.25;;;;;;;;;;5016043;28;20271;-64
2021/05/12 10:15:38;;;;;;;7.03;3.42;;;;;;;;;;5006071;28;20196;-65
2021/05/12 10:18:06;;;;;;;5.70;2.90;;;;;;;;;;4999218;28;20190;-64
2021/05/12 10:20:32;;;;;;;7.25;3.30;;;;;;;;;;4998746;28;20185;-66
2021/05/12 10:22:58;;;;;;;6.22;3.08;;;;;;;;;;5003490;28;21112;-63
2021/05/12 10:25:24;;;;;;;5.35;3.40;;;;;;;;;;4998687;28;20193;-63
2021/05/12 10:27:51;;;;;;;5.10;3.70;;;;;;;;;;4999376;28;20205;-64
2021/05/12 10:30:18;;;;;;;3.67;3.05;;;;;;;;;;4996707;28;20197;-64
2021/05/12 10:32:53;;;;;;;5.78;3.15;;;;;;;;;;4997889;28;20566;-61
2021/05/12 10:35:19;;;;;;;3.78;3.30;;;;;;;;;;5004586;28;20188;-64
2021/05/12 10:37:47;;;;;;;5.57;2.95;;;;;;;;;;4996790;28;20185;-62
2021/05/12 10:40:20;;;;;;;6.38;3.08;;;;;;;;;;4998880;28;20288;-64
2021/05/12 10:43:26;;;;;;;3.95;3.00;;;;;;;;;;4995067;28;20206;-65
2021/05/12 10:48:33;;;;;;;3.78;3.17;;;;;;;;;;5002589;28;20216;-64
2021/05/12 10:51:00;;;;;;;9.43;3.08;;;;;;;;;;4997102;28;20816;-65
2021/05/12 10:53:27;;;;;;;3.58;2.78;;;;;;;;;;4999431;28;20240;-64
2021/05/12 10:55:59;;;;;;;7.05;3.60;;;;;;;;;;4995735;28;20188;-64
2021/05/12 10:58:26;;;;;;;5.45;3.42;;;;;;;;;;4998569;28;20193;-65
2021/05/12 11:00:59;;;;;;;5.20;3.10;;;;;;;;;;5002063;28;20191;-65
2021/05/12 11:03:26;;;;;;;6.45;3.60;;;;;;;;;;4999367;28;20205;-64
2021/05/12 11:05:51;;;;;;;6.38;3.38;;;;;;;;;;5001386;28;20189;-65
2021/05/12 11:08:18;;;;;;;6.07;3.25;;;;;;;;;;4996753;28;20209;-64
2021/05/12 11:10:50;;;;;;;6.07;3.80;;;;;;;;;;4999761;28;20189;-64
2021/05/12 11:13:20;;;;;;;7.03;3.20;;;;;;;;;;4997319;28;20263;-63
2021/05/12 11:15:50;;;;;;;5.40;3.22;;;;;;;;;;4996800;28;20190;-63
2021/05/12 11:18:36;;;;;;;4.55;3.13;;;;;;;;;;5005693;28;20192;-64
2021/05/12 11:21:18;;;;;;;4.80;3.45;;;;;;;;;;4996649;28;20221;-61
2021/05/12 11:24:03;;;;;;;6.35;3.55;;;;;;;;;;5003309;28;20179;-65
2021/05/12 11:32:02;;;;;;;5.25;3.85;;;;;;;;;;5002571;28;20205;-63
2021/05/12 11:34:31;;;;;;;7.28;4.20;;;;;;;;;;5007726;28;20176;-65
2021/05/12 11:37:04;;;;;;;5.70;3.55;;;;;;;;;;5005195;28;20182;-65
2021/05/12 11:39:30;;;;;;;5.85;3.35;;;;;;;;;;4999842;28;20182;-62
2021/05/12 11:41:56;;;;;;;7.03;2.60;;;;;;;;;;5002114;28;20263;-65
2021/05/12 11:44:22;;;;;;;8.35;3.40;;;;;;;;;;4996267;28;20269;-63
2021/05/12 11:46:48;;;;;;;6.57;3.30;;;;;;;;;;4998523;28;20384;-63
2021/05/12 11:49:14;;;;;;;8.25;4.30;;;;;;;;;;5006570;28;20718;-63
2021/05/12 11:51:42;;;;;;;5.57;3.92;;;;;;;;;;5004408;28;20947;-64
2021/05/12 11:54:16;;;;;;;6.90;3.75;;;;;;;;;;5009189;28;20242;-64
2021/05/12 11:56:46;;;;;;;4.35;2.67;;;;;;;;;;4999923;28;20177;-66
2021/05/12 11:59:18;;;;;;;5.10;3.22;;;;;;;;;;5005973;28;20195;-66
2021/05/12 12:01:44;;;;;;;5.97;3.25;;;;;;;;;;5005382;28;20202;-64
2021/05/12 12:07:09;;;;;;;5.63;3.20;;;;;;;;;;5000942;28;20263;-65
2021/05/12 12:09:35;;;;;;;5.50;3.33;;;;;;;;;;5003402;28;20204;-64
2021/05/12 12:12:01;;;;;;;4.05;2.92;;;;;;;;;;5003384;28;20215;-64
2021/05/12 12:14:31;;;;;;;7.00;2.83;;;;;;;;;;5004200;28;20197;-64
2021/05/12 12:16:57;;;;;;;4.47;3.92;;;;;;;;;;5001206;28;20201;-65
2021/05/12 12:19:26;;;;;;;4.57;3.63;;;;;;;;;;4999216;28;20199;-65
2021/05/12 12:21:54;;;;;;;4.43;2.72;;;;;;;;;;4987582;28;20218;-65
2021/05/12 12:24:22;;;;;;;3.08;2.13;;;;;;;;;;5001453;28;20252;-65
2021/05/12 12:26:53;;;;;;;3.58;2.30;;;;;;;;;;5001105;28;20748;-65
2021/05/12 12:29:23;;;;;;;6.47;2.40;;;;;;;;;;5002626;28;20220;-65
2021/05/12 12:31:51;;;;;;;3.95;2.30;;;;;;;;;;5001732;28;20231;-66
2021/05/12 12:34:22;;;;;;;4.00;2.10;;;;;;;;;;4988649;28;20217;-66
2021/05/12 12:36:50;;;;;;;3.58;2.00;;;;;;;;;;5000490;28;20657;-65
2021/05/12 12:39:16;;;;;;;5.95;1.80;;;;;;;;;;5001284;28;20193;-67
2021/05/12 12:41:47;;;;;;;4.60;2.17;;;;;;;;;;5003829;28;20292;-65
2021/05/12 12:44:13;;;;;;;2.28;1.83;;;;;;;;;;5009138;28;20243;-65
2021/05/12 12:46:39;;;;;;;3.55;2.08;;;;;;;;;;5002782;28;20639;-65
2021/05/12 12:49:05;;;;;;;6.50;2.50;;;;;;;;;;5002022;28;20239;-66
2021/05/12 12:51:41;;;;;;;3.67;2.03;;;;;;;;;;5002718;28;20281;-65
2021/05/12 12:54:08;;;;;;;5.63;2.22;;;;;;;;;;5015183;28;20239;-66
2021/05/12 12:56:34;;;;;;;3.33;1.92;;;;;;;;;;4996396;28;20717;-66
2021/05/12 12:59:06;;;;;;;4.88;2.50;;;;;;;;;;5003221;28;20198;-64
2021/05/12 13:01:35;;;;;;;3.25;2.00;;;;;;;;;;5005324;28;20260;-67
2021/05/12 13:04:17;;;;;;;6.35;2.28;;;;;;;;;;5008386;28;20193;-66
2021/05/12 13:06:43;;;;;;;3.65;2.22;;;;;;;;;;4997673;28;20221;-64
2021/05/12 13:09:28;;;;;;;4.65;1.90;;;;;;;;;;5001960;28;20263;-65
2021/05/12 13:11:55;;;;;;;8.13;2.28;;;;;;;;;;5008889;28;20208;-65
2021/05/12 13:14:21;;;;;;;7.50;2.08;;;;;;;;;;4995004;28;20212;-65
2021/05/12 13:16:47;;;;;;;4.38;2.10;;;;;;;;;;5000496;28;20231;-64
2021/05/12 13:19:19;;;;;;;6.75;2.42;;;;;;;;;;4998171;28;20189;-65
2021/05/12 13:21:53;;;;;;;2.95;2.00;;;;;;;;;;5006404;28;20559;-65
2021/05/12 13:24:23;;;;;;;5.07;2.35;;;;;;;;;;5001549;28;20272;-65
2021/05/12 13:26:58;;;;;;;3.90;2.00;;;;;;;;;;4996249;28;20236;-65
2021/05/12 13:29:24;;;;;;;6.15;2.80;;;;;;;;;;4999080;28;20205;-64
2021/05/12 13:31:52;;;;;;;3.40;2.30;;;;;;;;;;5000916;28;20212;-63
2021/05/12 13:34:19;;;;;;;4.07;1.98;;;;;;;;;;4999810;28;20269;-65
2021/05/12 13:36:48;;;;;;;4.30;2.47;;;;;;;;;;4996215;28;20192;-64
2021/05/12 13:39:15;;;;;;;5.28;2.40;;;;;;;;;;5005049;28;20703;-64
2021/05/12 13:41:41;;;;;;;7.68;2.78;;;;;;;;;;5008400;28;20197;-64
2021/05/12 13:44:07;;;;;;;4.93;2.10;;;;;;;;;;5011447;28;20192;-65
2021/05/12 13:46:33;;;;;;;5.65;1.80;;;;;;;;;;5006852;28;20189;-64
2021/05/12 13:48:59;;;;;;;5.13;1.88;;;;;;;;;;5008161;28;20220;-65
2021/05/12 13:51:30;;;;;;;4.30;1.90;;;;;;;;;;5004884;28;20284;-65
2021/05/12 13:54:01;;;;;;;5.25;1.80;;;;;;;;;;5005154;28;20192;-65
2021/05/12 13:56:39;;;;;;;3.05;2.13;;;;;;;;;;5004194;28;20188;-64
2021/05/12 14:04:23;;;;;;;4.75;1.92;;;;;;;;;;4996304;28;20189;-62
2021/05/12 14:06:49;;;;;;;3.75;1.85;;;;;;;;;;4999874;28;20581;-64
2021/05/12 14:09:18;;;;;;;4.95;1.65;;;;;;;;;;4997201;28;20297;-63
2021/05/12 14:11:49;;;;;;;5.30;1.85;;;;;;;;;;5005574;28;20280;-64
2021/05/12 14:19:25;;;;;;;5.07;2.33;;;;;;;;;;5003398;28;20189;-65
2021/05/12 14:21:54;;;;;;;4.28;2.20;;;;;;;;;;5000560;28;20200;-65
2021/05/12 14:24:20;;;;;;;2.95;1.90;;;;;;;;;;5005729;28;20189;-64
2021/05/12 14:26:46;;;;;;;4.85;2.15;;;;;;;;;;5007555;28;20564;-64
2021/05/12 14:29:17;;;;;;;5.13;2.17;;;;;;;;;;4998839;28;20206;-63
2021/05/12 14:31:44;;;;;;;4.18;2.00;;;;;;;;;;5000876;28;20232;-64
2021/05/12 14:34:10;;;;;;;4.10;2.00;;;;;;;;;;5002848;28;20593;-66
2021/05/12 14:36:36;;;;;;;7.35;2.45;;;;;;;;;;4999418;28;20192;-65
2021/05/12 14:39:03;;;;;;;5.90;2.60;;;;;;;;;;4994050;28;20181;-64
2021/05/12 14:41:29;;;;;;;4.85;2.20;;;;;;;;;;5011611;28;20212;-64
2021/05/12 14:43:55;;;;;;;5.22;2.20;;;;;;;;;;5008739;28;20748;-65
2021/05/12 14:46:21;;;;;;;3.28;1.92;;;;;;;;;;5002256;28;20273;-63
2021/05/12 14:48:47;;;;;;;5.10;1.92;;;;;;;;;;4999987;28;20299;-65
2021/05/12 14:51:18;;;;;;;3.60;2.10;;;;;;;;;;4996840;28;20391;-64
2021/05/12 14:53:44;;;;;;;3.83;2.17;;;;;;;;;;5004857;28;20659;-63
2021/05/12 14:56:30;;;;;;;4.25;2.15;;;;;;;;;;5003782;28;20197;-64
2021/05/12 15:06:57;;;;;;;3.92;1.75;;;;;;;;;;5005715;28;20192;-65
2021/05/12 15:09:23;;;;;;;5.43;2.35;;;;;;;;;;5007586;28;20208;-63
2021/05/12 15:11:49;;;;;;;3.80;2.08;;;;;;;;;;5004862;28;20704;-66
2021/05/12 15:14:16;;;;;;;2.70;2.20;;;;;;;;;;5006594;28;20182;-64
2021/05/12 15:16:42;;;;;;;3.88;2.28;;;;;;;;;;5003444;28;20675;-65